sensor_id;sensor_type;location;lat;lon;timestamp;P1;durP1;ratioP1;P2;durP2;ratioP2
16330;SDS011;8275;48.206;16.340;2023-10-31T00:00:02;3.85;;;2.78;;
16330;SDS011;8275;48.206;16.340;2023-10-31T00:02:33;2.42;;;2.25;;
16330;SDS011;8275;48.206;16.340;2023-10-31T00:05:01;4.35;;;2.83;;
16330;SDS011;8275;48.206;16.340;2023-10-31T00:07:30;6.22;;;2.20;;
16330;SDS011;8275;48.206;16.340;2023-10-31T00:10:00;4.40;;;2.65;;
16330;SDS011;8275;48.206;16.340;2023-10-31T00:12:29;6.32;;;3.38;;
16330;SDS011;8275;48.206;16.340;2023-10-31T00:14:57;5.38;;;2.13;;
16330;SDS011;8275;48.206;16.340;2023-10-31T00:17:26;6.30;;;2.63;;
16330;SDS011;8275;48.206;16.340;2023-10-31T00:19:54;7.22;;;3.08;;
16330;SDS011;8275;48.206;16.340;2023-10-31T00:22:23;2.83;;;2.38;;
16330;SDS011;8275;48.206;16.340;2023-10-31T00:24:52;3.28;;;2.10;;
16330;SDS011;8275;48.206;16.340;2023-10-31T00:27:21;3.15;;;2.38;;
16330;SDS011;8275;48.206;16.340;2023-10-31T00:29:50;2.65;;;2.30;;
16330;SDS011;8275;48.206;16.340;2023-10-31T00:32:18;3.03;;;2.63;;
16330;SDS011;8275;48.206;16.340;2023-10-31T00:34:47;4.05;;;2.15;;
16330;SDS011;8275;48.206;16.340;2023-10-31T00:37:15;5.13;;;2.90;;
16330;SDS011;8275;48.206;16.340;2023-10-31T00:39:44;3.38;;;2.72;;
16330;SDS011;8275;48.206;16.340;2023-10-31T00:42:12;3.25;;;2.70;;
16330;SDS011;8275;48.206;16.340;2023-10-31T00:44:42;3.83;;;2.20;;
16330;SDS011;8275;48.206;16.340;2023-10-31T00:47:11;4.10;;;2.03;;
16330;SDS011;8275;48.206;16.340;2023-10-31T00:49:39;2.55;;;2.13;;
16330;SDS011;8275;48.206;16.340;2023-10-31T00:52:07;3.00;;;2.55;;
16330;SDS011;8275;48.206;16.340;2023-10-31T00:54:36;4.05;;;2.85;;
16330;SDS011;8275;48.206;16.340;2023-10-31T00:57:04;3.85;;;2.60;;
16330;SDS011;8275;48.206;16.340;2023-10-31T00:59:33;3.47;;;2.65;;
16330;SDS011;8275;48.206;16.340;2023-10-31T01:02:02;6.32;;;2.40;;
16330;SDS011;8275;48.206;16.340;2023-10-31T01:04:31;5.57;;;2.97;;
16330;SDS011;8275;48.206;16.340;2023-10-31T01:07:00;6.28;;;2.25;;
16330;SDS011;8275;48.206;16.340;2023-10-31T01:09:28;3.10;;;1.88;;
16330;SDS011;8275;48.206;16.340;2023-10-31T01:11:57;3.78;;;3.10;;
16330;SDS011;8275;48.206;16.340;2023-10-31T01:14:25;3.40;;;2.47;;
16330;SDS011;8275;48.206;16.340;2023-10-31T01:16:54;5.68;;;2.28;;
16330;SDS011;8275;48.206;16.340;2023-10-31T01:19:24;3.28;;;2.10;;
16330;SDS011;8275;48.206;16.340;2023-10-31T01:21:52;6.57;;;2.35;;
16330;SDS011;8275;48.206;16.340;2023-10-31T01:24:21;3.35;;;2.50;;
16330;SDS011;8275;48.206;16.340;2023-10-31T01:26:49;5.20;;;2.65;;
16330;SDS011;8275;48.206;16.340;2023-10-31T01:29:18;4.32;;;2.20;;
16330;SDS011;8275;48.206;16.340;2023-10-31T01:31:46;5.15;;;2.22;;
16330;SDS011;8275;48.206;16.340;2023-10-31T01:34:27;3.55;;;2.30;;
16330;SDS011;8275;48.206;16.340;2023-10-31T01:36:56;5.00;;;2.35;;
16330;SDS011;8275;48.206;16.340;2023-10-31T01:39:24;6.25;;;2.35;;
16330;SDS011;8275;48.206;16.340;2023-10-31T01:41:52;3.55;;;2.00;;
16330;SDS011;8275;48.206;16.340;2023-10-31T01:44:21;4.28;;;2.33;;
16330;SDS011;8275;48.206;16.340;2023-10-31T01:46:50;7.57;;;2.50;;
16330;SDS011;8275;48.206;16.340;2023-10-31T01:49:18;3.75;;;2.42;;
16330;SDS011;8275;48.206;16.340;2023-10-31T01:51:48;5.68;;;2.42;;
16330;SDS011;8275;48.206;16.340;2023-10-31T01:54:18;3.65;;;2.67;;
16330;SDS011;8275;48.206;16.340;2023-10-31T01:56:46;3.72;;;2.20;;
16330;SDS011;8275;48.206;16.340;2023-10-31T01:59:17;4.97;;;2.92;;
16330;SDS011;8275;48.206;16.340;2023-10-31T02:01:46;3.78;;;2.63;;
16330;SDS011;8275;48.206;16.340;2023-10-31T02:04:15;3.92;;;2.50;;
16330;SDS011;8275;48.206;16.340;2023-10-31T02:06:44;10.10;;;2.53;;
16330;SDS011;8275;48.206;16.340;2023-10-31T02:09:13;6.28;;;2.83;;
16330;SDS011;8275;48.206;16.340;2023-10-31T02:11:42;8.13;;;3.13;;
16330;SDS011;8275;48.206;16.340;2023-10-31T02:14:10;2.47;;;2.00;;
16330;SDS011;8275;48.206;16.340;2023-10-31T02:16:39;2.42;;;2.17;;
16330;SDS011;8275;48.206;16.340;2023-10-31T02:19:07;2.53;;;2.10;;
16330;SDS011;8275;48.206;16.340;2023-10-31T02:21:38;5.32;;;2.63;;
16330;SDS011;8275;48.206;16.340;2023-10-31T02:24:07;3.03;;;2.78;;
16330;SDS011;8275;48.206;16.340;2023-10-31T02:26:36;4.07;;;2.90;;
16330;SDS011;8275;48.206;16.340;2023-10-31T02:29:04;3.17;;;2.97;;
16330;SDS011;8275;48.206;16.340;2023-10-31T02:31:33;4.05;;;2.33;;
16330;SDS011;8275;48.206;16.340;2023-10-31T02:34:02;3.47;;;1.92;;
16330;SDS011;8275;48.206;16.340;2023-10-31T02:36:30;2.25;;;2.05;;
16330;SDS011;8275;48.206;16.340;2023-10-31T02:39:01;2.22;;;2.03;;
16330;SDS011;8275;48.206;16.340;2023-10-31T02:41:30;3.25;;;2.50;;
16330;SDS011;8275;48.206;16.340;2023-10-31T02:43:59;2.72;;;2.15;;
16330;SDS011;8275;48.206;16.340;2023-10-31T02:46:27;3.08;;;2.33;;
16330;SDS011;8275;48.206;16.340;2023-10-31T02:48:55;4.72;;;2.50;;
16330;SDS011;8275;48.206;16.340;2023-10-31T02:51:24;2.92;;;2.22;;
16330;SDS011;8275;48.206;16.340;2023-10-31T02:53:52;4.00;;;2.80;;
16330;SDS011;8275;48.206;16.340;2023-10-31T02:56:22;3.40;;;2.47;;
16330;SDS011;8275;48.206;16.340;2023-10-31T02:58:52;2.53;;;2.28;;
16330;SDS011;8275;48.206;16.340;2023-10-31T03:01:20;4.18;;;2.72;;
16330;SDS011;8275;48.206;16.340;2023-10-31T03:03:49;4.30;;;2.53;;
16330;SDS011;8275;48.206;16.340;2023-10-31T03:06:17;4.85;;;2.78;;
16330;SDS011;8275;48.206;16.340;2023-10-31T03:08:46;7.15;;;2.78;;
16330;SDS011;8275;48.206;16.340;2023-10-31T03:11:22;2.53;;;2.10;;
16330;SDS011;8275;48.206;16.340;2023-10-31T03:13:51;2.55;;;2.35;;
16330;SDS011;8275;48.206;16.340;2023-10-31T03:16:20;7.13;;;2.67;;
16330;SDS011;8275;48.206;16.340;2023-10-31T03:18:49;3.33;;;2.80;;
16330;SDS011;8275;48.206;16.340;2023-10-31T03:21:18;3.55;;;2.33;;
16330;SDS011;8275;48.206;16.340;2023-10-31T03:23:47;2.08;;;1.85;;
16330;SDS011;8275;48.206;16.340;2023-10-31T03:26:17;3.45;;;1.95;;
16330;SDS011;8275;48.206;16.340;2023-10-31T03:28:47;1.17;;;1.17;;
16330;SDS011;8275;48.206;16.340;2023-10-31T03:31:16;1.30;;;1.20;;
16330;SDS011;8275;48.206;16.340;2023-10-31T03:33:44;2.05;;;1.50;;
16330;SDS011;8275;48.206;16.340;2023-10-31T03:36:13;1.50;;;0.90;;
16330;SDS011;8275;48.206;16.340;2023-10-31T03:38:41;0.98;;;0.98;;
16330;SDS011;8275;48.206;16.340;2023-10-31T03:41:10;0.60;;;0.60;;
16330;SDS011;8275;48.206;16.340;2023-10-31T03:43:39;0.73;;;0.73;;
16330;SDS011;8275;48.206;16.340;2023-10-31T03:46:09;0.70;;;0.50;;
16330;SDS011;8275;48.206;16.340;2023-10-31T03:48:39;0.65;;;0.65;;
16330;SDS011;8275;48.206;16.340;2023-10-31T03:51:09;0.50;;;0.50;;
16330;SDS011;8275;48.206;16.340;2023-10-31T03:53:37;0.70;;;0.70;;
16330;SDS011;8275;48.206;16.340;2023-10-31T03:56:05;1.38;;;0.55;;
16330;SDS011;8275;48.206;16.340;2023-10-31T03:58:34;0.82;;;0.82;;
16330;SDS011;8275;48.206;16.340;2023-10-31T04:01:03;0.68;;;0.68;;
16330;SDS011;8275;48.206;16.340;2023-10-31T04:03:32;0.57;;;0.40;;
16330;SDS011;8275;48.206;16.340;2023-10-31T04:06:01;0.70;;;0.70;;
16330;SDS011;8275;48.206;16.340;2023-10-31T04:08:30;0.30;;;0.30;;
16330;SDS011;8275;48.206;16.340;2023-10-31T04:10:58;0.60;;;0.60;;
16330;SDS011;8275;48.206;16.340;2023-10-31T04:13:27;0.50;;;0.50;;
16330;SDS011;8275;48.206;16.340;2023-10-31T04:15:55;0.60;;;0.60;;
16330;SDS011;8275;48.206;16.340;2023-10-31T04:18:24;0.60;;;0.60;;
16330;SDS011;8275;48.206;16.340;2023-10-31T04:20:53;0.70;;;0.70;;
16330;SDS011;8275;48.206;16.340;2023-10-31T04:23:22;0.28;;;0.28;;
16330;SDS011;8275;48.206;16.340;2023-10-31T04:25:50;0.65;;;0.65;;
16330;SDS011;8275;48.206;16.340;2023-10-31T04:28:19;0.60;;;0.60;;
16330;SDS011;8275;48.206;16.340;2023-10-31T04:30:48;0.90;;;0.90;;
16330;SDS011;8275;48.206;16.340;2023-10-31T04:33:16;0.75;;;0.75;;
16330;SDS011;8275;48.206;16.340;2023-10-31T04:35:45;0.80;;;0.73;;
16330;SDS011;8275;48.206;16.340;2023-10-31T04:38:14;1.30;;;0.65;;
16330;SDS011;8275;48.206;16.340;2023-10-31T04:40:43;0.95;;;0.82;;
16330;SDS011;8275;48.206;16.340;2023-10-31T04:43:11;2.90;;;1.40;;
16330;SDS011;8275;48.206;16.340;2023-10-31T04:45:40;1.05;;;1.00;;
16330;SDS011;8275;48.206;16.340;2023-10-31T04:48:08;1.08;;;0.82;;
16330;SDS011;8275;48.206;16.340;2023-10-31T04:50:37;1.15;;;0.85;;
16330;SDS011;8275;48.206;16.340;2023-10-31T04:53:06;0.55;;;0.55;;
16330;SDS011;8275;48.206;16.340;2023-10-31T04:55:36;2.65;;;0.98;;
16330;SDS011;8275;48.206;16.340;2023-10-31T04:58:05;1.35;;;1.05;;
16330;SDS011;8275;48.206;16.340;2023-10-31T05:00:33;0.70;;;0.70;;
16330;SDS011;8275;48.206;16.340;2023-10-31T05:03:02;1.10;;;1.00;;
16330;SDS011;8275;48.206;16.340;2023-10-31T05:05:30;1.08;;;1.00;;
16330;SDS011;8275;48.206;16.340;2023-10-31T05:07:59;0.80;;;0.80;;
16330;SDS011;8275;48.206;16.340;2023-10-31T05:10:27;0.93;;;0.93;;
16330;SDS011;8275;48.206;16.340;2023-10-31T05:12:57;1.02;;;0.88;;
16330;SDS011;8275;48.206;16.340;2023-10-31T05:15:26;0.60;;;0.60;;
16330;SDS011;8275;48.206;16.340;2023-10-31T05:17:57;3.05;;;0.88;;
16330;SDS011;8275;48.206;16.340;2023-10-31T05:20:25;2.40;;;0.70;;
16330;SDS011;8275;48.206;16.340;2023-10-31T05:22:54;1.20;;;0.95;;
16330;SDS011;8275;48.206;16.340;2023-10-31T05:25:22;2.10;;;0.82;;
16330;SDS011;8275;48.206;16.340;2023-10-31T05:27:51;0.70;;;0.70;;
16330;SDS011;8275;48.206;16.340;2023-10-31T05:30:21;0.60;;;0.60;;
16330;SDS011;8275;48.206;16.340;2023-10-31T05:32:49;0.55;;;0.55;;
16330;SDS011;8275;48.206;16.340;2023-10-31T05:35:18;0.98;;;0.98;;
16330;SDS011;8275;48.206;16.340;2023-10-31T05:37:47;1.33;;;0.85;;
16330;SDS011;8275;48.206;16.340;2023-10-31T05:40:16;0.50;;;0.50;;
16330;SDS011;8275;48.206;16.340;2023-10-31T05:42:44;0.85;;;0.80;;
16330;SDS011;8275;48.206;16.340;2023-10-31T05:45:13;1.27;;;1.17;;
16330;SDS011;8275;48.206;16.340;2023-10-31T05:47:43;1.05;;;0.75;;
16330;SDS011;8275;48.206;16.340;2023-10-31T05:50:11;0.75;;;0.75;;
16330;SDS011;8275;48.206;16.340;2023-10-31T05:52:40;0.50;;;0.50;;
16330;SDS011;8275;48.206;16.340;2023-10-31T05:55:08;0.50;;;0.50;;
16330;SDS011;8275;48.206;16.340;2023-10-31T05:57:37;0.95;;;0.60;;
16330;SDS011;8275;48.206;16.340;2023-10-31T06:00:06;2.80;;;0.70;;
16330;SDS011;8275;48.206;16.340;2023-10-31T06:02:35;0.85;;;0.82;;
16330;SDS011;8275;48.206;16.340;2023-10-31T06:05:06;0.63;;;0.47;;
16330;SDS011;8275;48.206;16.340;2023-10-31T06:07:35;0.52;;;0.50;;
16330;SDS011;8275;48.206;16.340;2023-10-31T06:10:04;0.52;;;0.50;;
16330;SDS011;8275;48.206;16.340;2023-10-31T06:12:34;1.02;;;0.57;;
16330;SDS011;8275;48.206;16.340;2023-10-31T06:15:03;0.63;;;0.40;;
16330;SDS011;8275;48.206;16.340;2023-10-31T06:17:34;0.60;;;0.60;;
16330;SDS011;8275;48.206;16.340;2023-10-31T06:20:04;1.05;;;0.65;;
16330;SDS011;8275;48.206;16.340;2023-10-31T06:22:35;5.22;;;0.77;;
16330;SDS011;8275;48.206;16.340;2023-10-31T06:25:04;0.40;;;0.40;;
16330;SDS011;8275;48.206;16.340;2023-10-31T06:27:33;1.20;;;0.90;;
16330;SDS011;8275;48.206;16.340;2023-10-31T06:30:02;1.13;;;0.52;;
16330;SDS011;8275;48.206;16.340;2023-10-31T06:32:48;0.30;;;0.30;;
16330;SDS011;8275;48.206;16.340;2023-10-31T06:35:18;1.38;;;0.68;;
16330;SDS011;8275;48.206;16.340;2023-10-31T06:37:47;0.55;;;0.52;;
16330;SDS011;8275;48.206;16.340;2023-10-31T06:40:15;0.40;;;0.40;;
16330;SDS011;8275;48.206;16.340;2023-10-31T06:42:44;1.30;;;1.20;;
16330;SDS011;8275;48.206;16.340;2023-10-31T06:45:12;0.47;;;0.47;;
16330;SDS011;8275;48.206;16.340;2023-10-31T06:47:41;2.80;;;0.50;;
16330;SDS011;8275;48.206;16.340;2023-10-31T06:50:09;2.25;;;0.60;;
16330;SDS011;8275;48.206;16.340;2023-10-31T06:52:39;1.08;;;0.57;;
16330;SDS011;8275;48.206;16.340;2023-10-31T06:55:08;0.93;;;0.47;;
16330;SDS011;8275;48.206;16.340;2023-10-31T06:57:36;0.73;;;0.52;;
16330;SDS011;8275;48.206;16.340;2023-10-31T07:00:05;1.60;;;0.60;;
16330;SDS011;8275;48.206;16.340;2023-10-31T07:02:36;0.50;;;0.50;;
16330;SDS011;8275;48.206;16.340;2023-10-31T07:05:05;0.50;;;0.50;;
16330;SDS011;8275;48.206;16.340;2023-10-31T07:07:34;1.10;;;0.70;;
16330;SDS011;8275;48.206;16.340;2023-10-31T07:10:05;0.50;;;0.30;;
16330;SDS011;8275;48.206;16.340;2023-10-31T07:12:35;0.40;;;0.30;;
16330;SDS011;8275;48.206;16.340;2023-10-31T07:15:03;0.22;;;0.22;;
16330;SDS011;8275;48.206;16.340;2023-10-31T07:17:33;0.80;;;0.70;;
16330;SDS011;8275;48.206;16.340;2023-10-31T07:20:02;1.50;;;0.50;;
16330;SDS011;8275;48.206;16.340;2023-10-31T07:22:33;1.15;;;0.70;;
16330;SDS011;8275;48.206;16.340;2023-10-31T07:25:02;0.60;;;0.60;;
16330;SDS011;8275;48.206;16.340;2023-10-31T07:27:33;0.40;;;0.30;;
16330;SDS011;8275;48.206;16.340;2023-10-31T07:30:01;0.65;;;0.47;;
16330;SDS011;8275;48.206;16.340;2023-10-31T07:32:35;5.32;;;2.67;;
16330;SDS011;8275;48.206;16.340;2023-10-31T07:35:04;1.23;;;0.90;;
16330;SDS011;8275;48.206;16.340;2023-10-31T07:37:34;1.10;;;0.50;;
16330;SDS011;8275;48.206;16.340;2023-10-31T07:40:03;0.63;;;0.63;;
16330;SDS011;8275;48.206;16.340;2023-10-31T07:42:34;0.40;;;0.40;;
16330;SDS011;8275;48.206;16.340;2023-10-31T07:45:02;0.35;;;0.35;;
16330;SDS011;8275;48.206;16.340;2023-10-31T07:47:32;2.10;;;0.50;;
16330;SDS011;8275;48.206;16.340;2023-10-31T07:50:01;1.30;;;0.55;;
16330;SDS011;8275;48.206;16.340;2023-10-31T07:52:30;0.73;;;0.55;;
16330;SDS011;8275;48.206;16.340;2023-10-31T07:54:59;0.85;;;0.65;;
16330;SDS011;8275;48.206;16.340;2023-10-31T07:57:29;0.75;;;0.68;;
16330;SDS011;8275;48.206;16.340;2023-10-31T07:59:57;0.55;;;0.55;;
16330;SDS011;8275;48.206;16.340;2023-10-31T08:02:25;0.98;;;0.63;;
16330;SDS011;8275;48.206;16.340;2023-10-31T08:04:54;2.63;;;0.82;;
16330;SDS011;8275;48.206;16.340;2023-10-31T08:07:23;1.38;;;0.50;;
16330;SDS011;8275;48.206;16.340;2023-10-31T08:09:56;0.50;;;0.50;;
16330;SDS011;8275;48.206;16.340;2023-10-31T08:12:25;0.43;;;0.40;;
16330;SDS011;8275;48.206;16.340;2023-10-31T08:14:55;0.30;;;0.30;;
16330;SDS011;8275;48.206;16.340;2023-10-31T08:17:25;0.60;;;0.50;;
16330;SDS011;8275;48.206;16.340;2023-10-31T08:19:53;0.73;;;0.73;;
16330;SDS011;8275;48.206;16.340;2023-10-31T08:22:22;0.98;;;0.65;;
16330;SDS011;8275;48.206;16.340;2023-10-31T08:24:50;2.25;;;0.35;;
16330;SDS011;8275;48.206;16.340;2023-10-31T08:27:19;0.40;;;0.40;;
16330;SDS011;8275;48.206;16.340;2023-10-31T08:29:48;2.80;;;1.33;;
16330;SDS011;8275;48.206;16.340;2023-10-31T08:32:17;0.70;;;0.70;;
16330;SDS011;8275;48.206;16.340;2023-10-31T08:34:46;6.22;;;0.93;;
16330;SDS011;8275;48.206;16.340;2023-10-31T08:37:14;0.32;;;0.32;;
16330;SDS011;8275;48.206;16.340;2023-10-31T08:39:43;0.70;;;0.70;;
16330;SDS011;8275;48.206;16.340;2023-10-31T08:42:11;0.45;;;0.45;;
16330;SDS011;8275;48.206;16.340;2023-10-31T08:44:40;0.45;;;0.45;;
16330;SDS011;8275;48.206;16.340;2023-10-31T08:47:08;0.88;;;0.50;;
16330;SDS011;8275;48.206;16.340;2023-10-31T08:49:40;3.17;;;0.77;;
16330;SDS011;8275;48.206;16.340;2023-10-31T08:52:08;0.75;;;0.50;;
16330;SDS011;8275;48.206;16.340;2023-10-31T08:54:37;0.57;;;0.57;;
16330;SDS011;8275;48.206;16.340;2023-10-31T08:57:05;0.90;;;0.50;;
16330;SDS011;8275;48.206;16.340;2023-10-31T08:59:33;4.50;;;0.80;;
16330;SDS011;8275;48.206;16.340;2023-10-31T09:02:02;0.70;;;0.40;;
16330;SDS011;8275;48.206;16.340;2023-10-31T09:04:31;0.35;;;0.35;;
16330;SDS011;8275;48.206;16.340;2023-10-31T09:07:01;0.73;;;0.70;;
16330;SDS011;8275;48.206;16.340;2023-10-31T09:09:29;1.35;;;1.17;;
16330;SDS011;8275;48.206;16.340;2023-10-31T09:11:58;0.70;;;0.70;;
16330;SDS011;8275;48.206;16.340;2023-10-31T09:14:26;2.38;;;0.60;;
16330;SDS011;8275;48.206;16.340;2023-10-31T09:16:55;1.15;;;0.57;;
16330;SDS011;8275;48.206;16.340;2023-10-31T09:19:23;0.85;;;0.80;;
16330;SDS011;8275;48.206;16.340;2023-10-31T09:21:52;0.80;;;0.80;;
16330;SDS011;8275;48.206;16.340;2023-10-31T09:24:21;1.58;;;1.08;;
16330;SDS011;8275;48.206;16.340;2023-10-31T09:26:50;1.45;;;0.88;;
16330;SDS011;8275;48.206;16.340;2023-10-31T09:29:18;2.20;;;1.65;;
16330;SDS011;8275;48.206;16.340;2023-10-31T09:31:55;1.08;;;0.98;;
16330;SDS011;8275;48.206;16.340;2023-10-31T09:34:23;2.47;;;0.93;;
16330;SDS011;8275;48.206;16.340;2023-10-31T09:36:52;1.38;;;1.27;;
16330;SDS011;8275;48.206;16.340;2023-10-31T09:39:22;0.60;;;0.60;;
16330;SDS011;8275;48.206;16.340;2023-10-31T09:41:50;4.18;;;2.20;;
16330;SDS011;8275;48.206;16.340;2023-10-31T09:44:20;1.33;;;1.25;;
16330;SDS011;8275;48.206;16.340;2023-10-31T09:46:50;1.48;;;1.20;;
16330;SDS011;8275;48.206;16.340;2023-10-31T09:49:20;2.00;;;1.00;;
16330;SDS011;8275;48.206;16.340;2023-10-31T09:51:49;3.33;;;1.10;;
16330;SDS011;8275;48.206;16.340;2023-10-31T09:54:17;2.47;;;1.00;;
16330;SDS011;8275;48.206;16.340;2023-10-31T09:56:48;2.72;;;0.98;;
16330;SDS011;8275;48.206;16.340;2023-10-31T09:59:16;1.77;;;1.05;;
16330;SDS011;8275;48.206;16.340;2023-10-31T10:01:45;3.15;;;0.93;;
16330;SDS011;8275;48.206;16.340;2023-10-31T10:04:14;1.98;;;1.10;;
16330;SDS011;8275;48.206;16.340;2023-10-31T10:06:51;2.17;;;1.20;;
16330;SDS011;8275;48.206;16.340;2023-10-31T10:09:25;1.55;;;1.45;;
16330;SDS011;8275;48.206;16.340;2023-10-31T10:11:57;1.60;;;1.35;;
16330;SDS011;8275;48.206;16.340;2023-10-31T10:14:27;4.55;;;1.77;;
16330;SDS011;8275;48.206;16.340;2023-10-31T10:16:58;25.33;;;3.38;;
16330;SDS011;8275;48.206;16.340;2023-10-31T10:19:27;5.63;;;2.00;;
16330;SDS011;8275;48.206;16.340;2023-10-31T10:21:56;13.20;;;1.80;;
16330;SDS011;8275;48.206;16.340;2023-10-31T10:24:26;5.80;;;2.65;;
16330;SDS011;8275;48.206;16.340;2023-10-31T10:26:55;3.53;;;2.05;;
16330;SDS011;8275;48.206;16.340;2023-10-31T10:29:24;4.45;;;2.22;;
16330;SDS011;8275;48.206;16.340;2023-10-31T10:31:53;2.38;;;1.80;;
16330;SDS011;8275;48.206;16.340;2023-10-31T10:34:22;3.30;;;1.40;;
16330;SDS011;8275;48.206;16.340;2023-10-31T10:36:51;1.98;;;1.42;;
16330;SDS011;8275;48.206;16.340;2023-10-31T10:39:23;8.27;;;2.08;;
16330;SDS011;8275;48.206;16.340;2023-10-31T10:41:52;10.55;;;2.17;;
16330;SDS011;8275;48.206;16.340;2023-10-31T10:44:27;7.50;;;1.80;;
16330;SDS011;8275;48.206;16.340;2023-10-31T10:47:02;16.25;;;3.22;;
16330;SDS011;8275;48.206;16.340;2023-10-31T10:49:33;14.20;;;2.35;;
16330;SDS011;8275;48.206;16.340;2023-10-31T10:52:09;3.22;;;1.42;;
16330;SDS011;8275;48.206;16.340;2023-10-31T10:54:51;4.22;;;1.17;;
16330;SDS011;8275;48.206;16.340;2023-10-31T10:57:29;1.40;;;1.30;;
16330;SDS011;8275;48.206;16.340;2023-10-31T11:00:06;1.50;;;1.40;;
16330;SDS011;8275;48.206;16.340;2023-10-31T11:02:39;2.53;;;1.10;;
16330;SDS011;8275;48.206;16.340;2023-10-31T11:05:10;4.28;;;1.23;;
16330;SDS011;8275;48.206;16.340;2023-10-31T11:07:40;7.03;;;1.73;;
16330;SDS011;8275;48.206;16.340;2023-10-31T11:10:09;7.70;;;1.80;;
16330;SDS011;8275;48.206;16.340;2023-10-31T11:12:38;1.67;;;1.33;;
16330;SDS011;8275;48.206;16.340;2023-10-31T11:15:10;4.78;;;1.63;;
16330;SDS011;8275;48.206;16.340;2023-10-31T11:17:42;3.70;;;2.15;;
16330;SDS011;8275;48.206;16.340;2023-10-31T11:20:13;2.28;;;1.38;;
16330;SDS011;8275;48.206;16.340;2023-10-31T11:22:44;2.50;;;1.73;;
16330;SDS011;8275;48.206;16.340;2023-10-31T11:25:17;2.08;;;1.85;;
16330;SDS011;8275;48.206;16.340;2023-10-31T11:28:11;12.93;;;2.50;;
16330;SDS011;8275;48.206;16.340;2023-10-31T11:30:42;2.28;;;1.42;;
16330;SDS011;8275;48.206;16.340;2023-10-31T11:33:11;2.95;;;1.10;;
16330;SDS011;8275;48.206;16.340;2023-10-31T11:35:41;4.18;;;1.80;;
16330;SDS011;8275;48.206;16.340;2023-10-31T11:38:11;2.83;;;1.30;;
16330;SDS011;8275;48.206;16.340;2023-10-31T11:40:57;2.55;;;1.30;;
16330;SDS011;8275;48.206;16.340;2023-10-31T11:46:24;5.40;;;2.58;;
16330;SDS011;8275;48.206;16.340;2023-10-31T11:48:55;5.20;;;2.00;;
16330;SDS011;8275;48.206;16.340;2023-10-31T11:51:26;2.60;;;1.80;;
16330;SDS011;8275;48.206;16.340;2023-10-31T11:53:54;2.55;;;1.40;;
16330;SDS011;8275;48.206;16.340;2023-10-31T11:56:24;2.22;;;2.00;;
16330;SDS011;8275;48.206;16.340;2023-10-31T11:58:56;2.72;;;1.73;;
16330;SDS011;8275;48.206;16.340;2023-10-31T12:01:27;1.98;;;1.52;;
16330;SDS011;8275;48.206;16.340;2023-10-31T12:03:56;2.28;;;1.60;;
16330;SDS011;8275;48.206;16.340;2023-10-31T12:06:25;4.00;;;1.45;;
16330;SDS011;8275;48.206;16.340;2023-10-31T12:08:58;3.15;;;0.93;;
16330;SDS011;8275;48.206;16.340;2023-10-31T12:11:29;1.10;;;0.93;;
16330;SDS011;8275;48.206;16.340;2023-10-31T12:13:58;2.40;;;2.20;;
16330;SDS011;8275;48.206;16.340;2023-10-31T12:16:30;2.35;;;2.00;;
16330;SDS011;8275;48.206;16.340;2023-10-31T12:19:00;1.65;;;1.55;;
16330;SDS011;8275;48.206;16.340;2023-10-31T12:21:34;2.90;;;1.60;;
16330;SDS011;8275;48.206;16.340;2023-10-31T12:24:08;5.18;;;1.98;;
16330;SDS011;8275;48.206;16.340;2023-10-31T12:26:39;1.10;;;1.00;;
16330;SDS011;8275;48.206;16.340;2023-10-31T12:29:08;2.10;;;1.45;;
16330;SDS011;8275;48.206;16.340;2023-10-31T12:31:40;2.78;;;1.08;;
16330;SDS011;8275;48.206;16.340;2023-10-31T12:34:13;1.33;;;1.23;;
16330;SDS011;8275;48.206;16.340;2023-10-31T12:36:42;1.55;;;1.45;;
16330;SDS011;8275;48.206;16.340;2023-10-31T12:39:13;3.45;;;1.80;;
16330;SDS011;8275;48.206;16.340;2023-10-31T12:41:43;1.67;;;1.58;;
16330;SDS011;8275;48.206;16.340;2023-10-31T12:44:12;2.80;;;2.55;;
16330;SDS011;8275;48.206;16.340;2023-10-31T12:46:46;2.55;;;1.90;;
16330;SDS011;8275;48.206;16.340;2023-10-31T12:49:16;4.47;;;1.60;;
16330;SDS011;8275;48.206;16.340;2023-10-31T12:51:59;3.25;;;1.42;;
16330;SDS011;8275;48.206;16.340;2023-10-31T12:54:29;3.75;;;1.73;;
16330;SDS011;8275;48.206;16.340;2023-10-31T12:56:59;1.17;;;1.05;;
16330;SDS011;8275;48.206;16.340;2023-10-31T12:59:28;1.58;;;1.48;;
16330;SDS011;8275;48.206;16.340;2023-10-31T13:01:59;1.70;;;1.60;;
16330;SDS011;8275;48.206;16.340;2023-10-31T13:04:28;2.78;;;1.70;;
16330;SDS011;8275;48.206;16.340;2023-10-31T13:06:59;3.97;;;2.17;;
16330;SDS011;8275;48.206;16.340;2023-10-31T13:09:30;2.35;;;2.13;;
16330;SDS011;8275;48.206;16.340;2023-10-31T13:12:02;4.72;;;2.35;;
16330;SDS011;8275;48.206;16.340;2023-10-31T13:14:32;1.30;;;1.20;;
16330;SDS011;8275;48.206;16.340;2023-10-31T13:17:02;1.58;;;1.05;;
16330;SDS011;8275;48.206;16.340;2023-10-31T13:19:31;0.77;;;0.77;;
16330;SDS011;8275;48.206;16.340;2023-10-31T13:22:00;2.30;;;1.33;;
16330;SDS011;8275;48.206;16.340;2023-10-31T13:24:28;1.85;;;1.02;;
16330;SDS011;8275;48.206;16.340;2023-10-31T13:26:57;0.80;;;0.68;;
16330;SDS011;8275;48.206;16.340;2023-10-31T13:29:27;0.70;;;0.70;;
16330;SDS011;8275;48.206;16.340;2023-10-31T13:31:55;1.20;;;1.02;;
16330;SDS011;8275;48.206;16.340;2023-10-31T13:34:25;1.00;;;0.85;;
16330;SDS011;8275;48.206;16.340;2023-10-31T13:36:54;2.05;;;1.27;;
16330;SDS011;8275;48.206;16.340;2023-10-31T13:39:22;1.52;;;0.77;;
16330;SDS011;8275;48.206;16.340;2023-10-31T13:41:51;1.17;;;0.90;;
16330;SDS011;8275;48.206;16.340;2023-10-31T13:44:19;2.08;;;1.88;;
16330;SDS011;8275;48.206;16.340;2023-10-31T13:46:48;3.60;;;2.13;;
16330;SDS011;8275;48.206;16.340;2023-10-31T13:49:16;3.58;;;3.25;;
16330;SDS011;8275;48.206;16.340;2023-10-31T13:51:47;1.75;;;1.20;;
16330;SDS011;8275;48.206;16.340;2023-10-31T13:54:16;1.13;;;0.95;;
16330;SDS011;8275;48.206;16.340;2023-10-31T13:56:45;2.45;;;1.42;;
16330;SDS011;8275;48.206;16.340;2023-10-31T13:59:14;1.20;;;1.10;;
16330;SDS011;8275;48.206;16.340;2023-10-31T14:01:46;1.38;;;1.27;;
16330;SDS011;8275;48.206;16.340;2023-10-31T14:04:14;1.30;;;1.20;;
16330;SDS011;8275;48.206;16.340;2023-10-31T14:06:43;2.22;;;2.08;;
16330;SDS011;8275;48.206;16.340;2023-10-31T14:09:14;1.23;;;1.10;;
16330;SDS011;8275;48.206;16.340;2023-10-31T14:11:42;1.00;;;0.90;;
16330;SDS011;8275;48.206;16.340;2023-10-31T14:14:11;2.05;;;1.85;;
16330;SDS011;8275;48.206;16.340;2023-10-31T14:16:40;1.95;;;1.17;;
16330;SDS011;8275;48.206;16.340;2023-10-31T14:19:11;1.85;;;1.65;;
16330;SDS011;8275;48.206;16.340;2023-10-31T14:21:40;1.70;;;1.60;;
16330;SDS011;8275;48.206;16.340;2023-10-31T14:24:10;2.15;;;0.70;;
16330;SDS011;8275;48.206;16.340;2023-10-31T14:26:40;1.77;;;1.33;;
16330;SDS011;8275;48.206;16.340;2023-10-31T14:29:10;1.42;;;1.27;;
16330;SDS011;8275;48.206;16.340;2023-10-31T14:31:39;1.08;;;1.08;;
16330;SDS011;8275;48.206;16.340;2023-10-31T14:34:09;2.45;;;1.17;;
16330;SDS011;8275;48.206;16.340;2023-10-31T14:36:37;2.15;;;0.80;;
16330;SDS011;8275;48.206;16.340;2023-10-31T14:39:06;2.13;;;1.52;;
16330;SDS011;8275;48.206;16.340;2023-10-31T14:41:36;1.75;;;1.65;;
16330;SDS011;8275;48.206;16.340;2023-10-31T14:44:06;2.42;;;1.45;;
16330;SDS011;8275;48.206;16.340;2023-10-31T14:46:36;1.25;;;1.10;;
16330;SDS011;8275;48.206;16.340;2023-10-31T14:49:04;1.90;;;1.38;;
16330;SDS011;8275;48.206;16.340;2023-10-31T14:51:33;1.13;;;0.98;;
16330;SDS011;8275;48.206;16.340;2023-10-31T14:54:01;0.77;;;0.77;;
16330;SDS011;8275;48.206;16.340;2023-10-31T14:56:30;1.83;;;1.20;;
16330;SDS011;8275;48.206;16.340;2023-10-31T14:59:01;2.40;;;0.88;;
16330;SDS011;8275;48.206;16.340;2023-10-31T15:01:31;0.75;;;0.75;;
16330;SDS011;8275;48.206;16.340;2023-10-31T15:04:00;3.83;;;1.33;;